Martinsburg, Missouri
Current Conditions -  °F | °C
As of 1:54 PM on Friday 21 Nov 2014 (Local Time) from KCOU Reporting Station
Broken Clouds Broken Clouds  
Wind Chill: 37°   Ceiling: 2300
Heat Index: 43°   Visibility: 10mi
Dew Point: 24°   Wind: 10mph
Humidity: 47%   Direction: 140°SE
Pressure: 30.22"   Gusts: 20mph
Location:  39.1°N, 91.65°W
Report Text: KCOU 211954Z 14009G17KT 10SM BKN023 06/M04 A3022 RMK AO2 SLP242 T00611044
Loading
Personal Weather Stations






























Interactive Weather Map New forecast layout! Learn more

10-Day Weather Forecast

Advertisements
Track Severe Weather on mobile